createdAt,value
2018-07-01T00:00:04.539Z,0
2018-07-01T00:01:04.786Z,0
2018-07-01T00:02:04.506Z,0
2018-07-01T00:03:05.027Z,0
2018-07-01T00:04:04.770Z,0
2018-07-01T00:05:04.466Z,0
2018-07-01T00:06:04.463Z,0
2018-07-01T00:07:04.450Z,0
2018-07-01T00:08:04.187Z,0
2018-07-01T00:09:04.434Z,0
2018-07-01T00:10:04.789Z,0
2018-07-01T00:11:04.750Z,0
2018-07-01T00:12:04.133Z,0
2018-07-01T00:13:04.650Z,0
2018-07-01T00:14:04.658Z,0
2018-07-01T00:15:04.366Z,0
2018-07-01T00:16:04.357Z,0
2018-07-01T00:17:04.607Z,0
2018-07-01T00:18:04.324Z,0
2018-07-01T00:19:04.331Z,0
2018-07-01T00:20:04.316Z,0
2018-07-01T00:21:04.300Z,0
2018-07-01T00:22:04.286Z,0
2018-07-01T00:23:04.347Z,0
2018-07-01T00:24:04.554Z,0
2018-07-01T00:25:04.522Z,0
2018-07-01T00:26:04.522Z,0
2018-07-01T00:27:04.757Z,0
2018-07-01T00:28:04.222Z,0
2018-07-01T00:29:04.212Z,0
2018-07-01T00:30:04.466Z,0
2018-07-01T00:31:04.716Z,0
2018-07-01T00:32:04.171Z,0
2018-07-01T00:33:04.178Z,0
2018-07-01T00:34:04.154Z,0
2018-07-01T00:35:03.880Z,0
2018-07-01T00:36:04.136Z,0
2018-07-01T00:37:04.117Z,0
2018-07-01T00:38:04.132Z,0
2018-07-01T00:39:03.583Z,0
2018-07-01T00:40:04.087Z,0
2018-07-01T00:41:04.632Z,0
2018-07-01T00:42:04.067Z,0
2018-07-01T00:43:04.331Z,0
2018-07-01T00:44:04.313Z,0
2018-07-01T00:45:04.053Z,0
2018-07-01T00:46:04.024Z,0
2018-07-01T00:47:04.045Z,0
2018-07-01T00:48:03.742Z,0
2018-07-01T00:49:04.519Z,0
2018-07-01T00:50:04.241Z,0
2018-07-01T00:51:04.228Z,0
2018-07-01T00:52:03.968Z,0
2018-07-01T00:53:04.244Z,0
2018-07-01T00:54:03.928Z,0
2018-07-01T00:55:04.465Z,0
2018-07-01T00:56:04.186Z,0
2018-07-01T00:57:03.905Z,0
2018-07-01T00:58:04.177Z,0
2018-07-01T00:59:03.886Z,0
2018-07-01T01:00:04.125Z,0
2018-07-01T01:01:04.116Z,0
2018-07-01T01:02:04.117Z,0
2018-07-01T01:03:04.105Z,0
2018-07-01T01:04:03.828Z,0
2018-07-01T01:05:03.811Z,0
2018-07-01T01:06:03.797Z,0
2018-07-01T01:07:03.783Z,0
2018-07-01T01:08:03.805Z,0
2018-07-01T01:09:03.771Z,0
2018-07-01T01:10:04.044Z,0
2018-07-01T01:11:03.742Z,0
2018-07-01T01:12:03.726Z,0
2018-07-01T01:13:03.721Z,0
2018-07-01T01:14:03.971Z,0
2018-07-01T01:15:04.222Z,0
2018-07-01T01:16:03.956Z,0
2018-07-01T01:17:03.681Z,0
2018-07-01T01:18:03.397Z,0
2018-07-01T01:19:03.916Z,0
2018-07-01T01:20:03.105Z,0
2018-07-01T01:21:03.631Z,0
2018-07-01T01:22:03.879Z,0
2018-07-01T01:23:03.602Z,0
2018-07-01T01:24:03.856Z,0
2018-07-01T01:25:03.595Z,0
2018-07-01T01:26:03.835Z,0
2018-07-01T01:27:03.299Z,0
2018-07-01T01:28:03.286Z,0
2018-07-01T01:29:03.792Z,0
2018-07-01T01:30:03.555Z,0
2018-07-01T01:31:03.846Z,0
2018-07-01T01:32:03.757Z,0
2018-07-01T01:33:03.490Z,0
2018-07-01T01:34:03.785Z,0
2018-07-01T01:35:04.031Z,0
2018-07-01T01:36:03.395Z,0
2018-07-01T01:37:03.716Z,0
2018-07-01T01:38:03.688Z,0
2018-07-01T01:39:03.679Z,0
2018-07-01T01:40:03.417Z,0
2018-07-01T01:41:03.929Z,0
2018-07-01T01:42:03.641Z,0
2018-07-01T01:43:03.643Z,0
2018-07-01T01:44:03.617Z,0
2018-07-01T01:45:03.088Z,0
2018-07-01T01:46:03.644Z,0
2018-07-01T01:47:03.359Z,0
2018-07-01T01:48:03.305Z,0
2018-07-01T01:49:03.581Z,0
2018-07-01T01:50:03.288Z,0
2018-07-01T01:51:03.542Z,0
2018-07-01T01:52:03.266Z,0
2018-07-01T01:53:03.537Z,0
2018-07-01T01:54:03.500Z,0
2018-07-01T01:55:03.497Z,0
2018-07-01T01:56:02.954Z,0
2018-07-01T01:57:03.218Z,0
2018-07-01T01:58:03.214Z,0
2018-07-01T01:59:03.720Z,0
2018-07-01T02:00:03.443Z,0
2018-07-01T02:01:03.435Z,0
2018-07-01T02:02:02.883Z,0
2018-07-01T02:03:03.410Z,0
2018-07-01T02:04:03.129Z,0
2018-07-01T02:05:03.382Z,0
2018-07-01T02:06:03.368Z,0
2018-07-01T02:07:03.096Z,0
2018-07-01T02:08:03.603Z,0
2018-07-01T02:09:02.807Z,0
2018-07-01T02:10:03.601Z,0
2018-07-01T02:11:02.508Z,0
2018-07-01T02:12:03.083Z,0
2018-07-01T02:13:03.330Z,0
2018-07-01T02:14:03.274Z,0
2018-07-01T02:15:03.254Z,0
2018-07-01T02:16:03.250Z,0
2018-07-01T02:17:02.710Z,0
2018-07-01T02:18:03.490Z,0
2018-07-01T02:19:02.972Z,0
2018-07-01T02:20:02.949Z,0
2018-07-01T02:21:02.667Z,0
2018-07-01T02:22:02.911Z,0
2018-07-01T02:23:03.166Z,0
2018-07-01T02:24:02.891Z,0
2018-07-01T02:25:03.145Z,0
2018-07-01T02:26:03.134Z,0
2018-07-01T02:27:02.859Z,0
2018-07-01T02:28:02.577Z,0
2018-07-01T02:29:03.101Z,0
2018-07-01T02:30:02.818Z,0
2018-07-01T02:31:02.812Z,0
2018-07-01T02:32:03.069Z,0
2018-07-01T02:33:02.795Z,0
2018-07-01T02:34:03.035Z,0
2018-07-01T02:35:02.483Z,0
2018-07-01T02:36:02.739Z,0
2018-07-01T02:37:03.261Z,0
2018-07-01T02:38:03.248Z,0
2018-07-01T02:39:03.236Z,0
2018-07-01T02:40:03.256Z,0
2018-07-01T02:41:02.948Z,0
2018-07-01T02:42:03.200Z,0
2018-07-01T02:43:02.386Z,0
2018-07-01T02:44:02.915Z,0
2018-07-01T02:45:02.904Z,0
2018-07-01T02:46:02.737Z,0
2018-07-01T02:47:02.620Z,0
2018-07-01T02:48:02.900Z,0
2018-07-01T02:49:02.597Z,0
2018-07-01T02:50:02.577Z,0
2018-07-01T02:51:02.824Z,0
2018-07-01T02:52:03.093Z,0
2018-07-01T02:53:02.807Z,0
2018-07-01T02:54:03.263Z,0
2018-07-01T02:55:02.516Z,0
2018-07-01T02:56:02.550Z,0
2018-07-01T02:57:02.227Z,0
2018-07-01T02:58:02.479Z,0
2018-07-01T02:59:02.252Z,0
2018-07-01T03:00:02.746Z,0
2018-07-01T03:01:02.710Z,0
2018-07-01T03:02:02.451Z,0
2018-07-01T03:03:02.425Z,0
2018-07-01T03:04:02.397Z,0
2018-07-01T03:05:02.662Z,0
2018-07-01T03:06:02.654Z,0
2018-07-01T03:07:02.916Z,0
2018-07-01T03:08:02.639Z,0
2018-07-01T03:09:01.820Z,0
2018-07-01T03:10:02.898Z,0
2018-07-01T03:11:02.056Z,0
2018-07-01T03:12:02.871Z,0
2018-07-01T03:13:02.573Z,0
2018-07-01T03:14:02.553Z,0
2018-07-01T03:15:02.804Z,0
2018-07-01T03:16:02.251Z,0
2018-07-01T03:17:02.512Z,0
2018-07-01T03:18:02.232Z,0
2018-07-01T03:19:01.692Z,0
2018-07-01T03:20:02.490Z,0
2018-07-01T03:21:02.489Z,5
2018-07-01T03:22:02.708Z,5
2018-07-01T03:23:01.896Z,5
2018-07-01T03:24:02.174Z,5
2018-07-01T03:25:02.476Z,5
2018-07-01T03:26:02.515Z,5
2018-07-01T03:27:02.429Z,5
2018-07-01T03:28:02.401Z,5
2018-07-01T03:29:02.360Z,5
2018-07-01T03:30:02.385Z,5
2018-07-01T03:31:02.329Z,5
2018-07-01T03:32:01.790Z,5
2018-07-01T03:33:02.295Z,5
2018-07-01T03:34:02.566Z,5
2018-07-01T03:35:02.272Z,10
2018-07-01T03:36:02.736Z,10
2018-07-01T03:37:02.556Z,10
2018-07-01T03:38:01.705Z,10
2018-07-01T03:39:02.234Z,10
2018-07-01T03:40:02.235Z,10
2018-07-01T03:41:02.467Z,10
2018-07-01T03:42:02.188Z,10
2018-07-01T03:43:02.190Z,10
2018-07-01T03:44:02.179Z,10
2018-07-01T03:45:02.162Z,10
2018-07-01T03:46:02.140Z,10
2018-07-01T03:47:01.893Z,15
2018-07-01T03:48:01.327Z,15
2018-07-01T03:49:01.313Z,15
2018-07-01T03:50:02.104Z,15
2018-07-01T03:51:01.570Z,15
2018-07-01T03:52:02.063Z,15
2018-07-01T03:53:01.789Z,15
2018-07-01T03:54:01.792Z,15
2018-07-01T03:55:02.021Z,15
2018-07-01T03:56:01.486Z,15
2018-07-01T03:57:01.482Z,20
2018-07-01T03:58:02.260Z,20
2018-07-01T03:59:01.710Z,20
2018-07-01T04:00:01.981Z,20
2018-07-01T04:01:01.953Z,20
2018-07-01T04:02:01.700Z,20
2018-07-01T04:03:01.942Z,20
2018-07-01T04:04:01.397Z,20
2018-07-01T04:05:02.168Z,20
2018-07-01T04:06:01.950Z,20
2018-07-01T04:07:02.143Z,20
2018-07-01T04:08:01.896Z,25
2018-07-01T04:09:01.594Z,25
2018-07-01T04:10:01.309Z,25
2018-07-01T04:11:01.574Z,25
2018-07-01T04:12:01.568Z,25
2018-07-01T04:13:01.545Z,25
2018-07-01T04:14:01.798Z,25
2018-07-01T04:15:01.511Z,25
2018-07-01T04:16:01.250Z,25
2018-07-01T04:17:01.498Z,25
2018-07-01T04:18:01.473Z,25
2018-07-01T04:19:01.458Z,25
2018-07-01T04:20:01.728Z,25
2018-07-01T04:21:01.467Z,25
2018-07-01T04:22:01.424Z,30
2018-07-01T04:23:01.426Z,30
2018-07-01T04:24:01.405Z,30
2018-07-01T04:25:01.399Z,30
2018-07-01T04:26:01.375Z,30
2018-07-01T04:27:01.936Z,30
2018-07-01T04:28:01.614Z,30
2018-07-01T04:29:01.867Z,30
2018-07-01T04:30:01.103Z,30
2018-07-01T04:31:01.449Z,30
2018-07-01T04:32:01.322Z,30
2018-07-01T04:33:01.027Z,30
2018-07-01T04:34:01.275Z,30
2018-07-01T04:35:01.664Z,30
2018-07-01T04:36:00.988Z,30
2018-07-01T04:37:01.243Z,30
2018-07-01T04:38:01.492Z,30
2018-07-01T04:39:01.223Z,30
2018-07-01T04:40:01.223Z,30
2018-07-01T04:41:01.220Z,30
2018-07-01T04:42:01.186Z,35
2018-07-01T04:43:00.910Z,35
2018-07-01T04:44:01.698Z,35
2018-07-01T04:45:16.046Z,35
2018-07-01T04:46:01.140Z,35
2018-07-01T04:47:01.117Z,35
2018-07-01T04:48:01.128Z,35
2018-07-01T04:49:01.370Z,35
2018-07-01T04:50:01.085Z,35
2018-07-01T04:51:01.606Z,35
2018-07-01T04:52:01.327Z,35
2018-07-01T04:53:01.574Z,35
2018-07-01T04:54:01.027Z,35
2018-07-01T04:55:00.512Z,35
2018-07-01T04:56:01.315Z,35
2018-07-01T04:57:01.258Z,35
2018-07-01T04:58:00.990Z,35
2018-07-01T04:59:00.705Z,35
2018-07-01T05:00:00.443Z,35
2018-07-01T05:01:00.973Z,35
2018-07-01T05:02:01.801Z,35
2018-07-01T05:03:01.192Z,35
2018-07-01T05:04:01.183Z,35
2018-07-01T05:05:00.633Z,40
2018-07-01T05:06:01.171Z,40
2018-07-01T05:07:00.615Z,40
2018-07-01T05:08:00.596Z,40
2018-07-01T05:09:00.595Z,40
2018-07-01T05:10:01.098Z,40
2018-07-01T05:11:00.821Z,40
2018-07-01T05:12:00.826Z,40
2018-07-01T05:13:00.282Z,40
2018-07-01T05:14:01.113Z,40
2018-07-01T05:15:01.299Z,40
2018-07-01T05:16:00.774Z,40
2018-07-01T05:17:00.235Z,40
2018-07-01T05:18:01.065Z,40
2018-07-01T05:19:01.282Z,40
2018-07-01T05:20:00.457Z,40
2018-07-01T05:21:00.974Z,40
2018-07-01T05:22:00.958Z,40
2018-07-01T05:23:00.691Z,40
2018-07-01T05:24:00.929Z,40
2018-07-01T05:25:00.949Z,40
2018-07-01T05:26:00.927Z,45
2018-07-01T05:27:00.904Z,45
2018-07-01T05:28:00.630Z,45
2018-07-01T05:29:00.609Z,45
2018-07-01T05:30:00.112Z,45
2018-07-01T05:31:00.845Z,45
2018-07-01T05:32:01.099Z,45
2018-07-01T05:33:00.302Z,45
2018-07-01T05:34:00.837Z,45
2018-07-01T05:35:00.564Z,45
2018-07-01T05:36:00.815Z,45
2018-07-01T05:37:00.523Z,45
2018-07-01T05:38:00.828Z,45
2018-07-01T05:39:00.522Z,45
2018-07-01T05:40:00.510Z,45
2018-07-01T05:41:00.470Z,45
2018-07-01T05:42:00.511Z,45
2018-07-01T05:43:01.020Z,45
2018-07-01T05:44:00.555Z,45
2018-07-01T05:45:00.435Z,45
2018-07-01T05:46:00.206Z,45
2018-07-01T05:47:00.141Z,45
2018-07-01T05:48:00.921Z,45
2018-07-01T05:49:00.387Z,45
2018-07-01T05:50:00.114Z,45
2018-07-01T05:51:00.088Z,50
2018-07-01T05:52:00.409Z,50
2018-07-01T05:53:00.873Z,50
2018-07-01T05:54:00.640Z,50
2018-07-01T05:54:59.784Z,50
2018-07-01T05:56:00.828Z,50
2018-07-01T05:57:00.601Z,50
2018-07-01T05:58:00.296Z,50
2018-07-01T05:59:00.258Z,50
2018-07-01T06:00:00.261Z,50
2018-07-01T06:01:00.510Z,50
2018-07-01T06:01:59.706Z,50
2018-07-01T06:03:00.217Z,50
2018-07-01T06:04:00.233Z,50
2018-07-01T06:05:00.196Z,50
2018-07-01T06:05:59.969Z,50
2018-07-01T06:06:59.914Z,50
2018-07-01T06:08:00.183Z,50
2018-07-01T06:09:00.150Z,50
2018-07-01T06:09:59.870Z,50
2018-07-01T06:11:00.123Z,50
2018-07-01T06:11:59.851Z,50
2018-07-01T06:13:00.369Z,50
2018-07-01T06:14:00.431Z,50
2018-07-01T06:15:00.361Z,50
2018-07-01T06:15:59.813Z,50
2018-07-01T06:17:00.073Z,50
2018-07-01T06:18:00.329Z,185
2018-07-01T06:19:00.038Z,615
2018-07-01T06:20:00.311Z,445
2018-07-01T06:21:00.325Z,70
2018-07-01T06:22:00.015Z,445
2018-07-01T06:22:59.471Z,825
2018-07-01T06:24:00.252Z,970
2018-07-01T06:25:00.248Z,970
2018-07-01T06:25:59.707Z,780
2018-07-01T06:27:00.499Z,295
2018-07-01T06:28:00.230Z,60
2018-07-01T06:28:59.946Z,50
2018-07-01T06:29:59.936Z,50
2018-07-01T06:31:00.177Z,50
2018-07-01T06:32:00.184Z,50
2018-07-01T06:33:00.083Z,50
2018-07-01T06:33:59.628Z,50
2018-07-01T06:34:59.886Z,50
2018-07-01T06:35:59.882Z,50
2018-07-01T06:37:00.131Z,50
2018-07-01T06:38:00.123Z,50
2018-07-01T06:39:00.316Z,50
2018-07-01T06:39:59.838Z,50
2018-07-01T06:41:00.090Z,50
2018-07-01T06:41:59.914Z,50
2018-07-01T06:42:59.809Z,50
2018-07-01T06:44:00.325Z,50
2018-07-01T06:44:59.525Z,50
2018-07-01T06:45:59.788Z,50
2018-07-01T06:47:00.035Z,55
2018-07-01T06:47:59.756Z,55
2018-07-01T06:48:59.744Z,150
2018-07-01T06:49:59.469Z,640
2018-07-01T06:50:59.990Z,1115
2018-07-01T06:51:59.985Z,1155
2018-07-01T06:52:59.981Z,1115
2018-07-01T06:53:59.698Z,1030
2018-07-01T06:54:59.963Z,965
2018-07-01T06:55:59.954Z,850
2018-07-01T06:56:59.958Z,580
2018-07-01T06:58:00.300Z,250
2018-07-01T06:58:59.407Z,75
2018-07-01T06:59:59.920Z,65
2018-07-01T07:00:59.905Z,65
2018-07-01T07:01:59.904Z,65
2018-07-01T07:03:00.164Z,65
2018-07-01T07:03:59.893Z,65
2018-07-01T07:04:59.871Z,65
2018-07-01T07:05:59.340Z,65
2018-07-01T07:06:59.623Z,65
2018-07-01T07:08:00.081Z,65
2018-07-01T07:08:59.842Z,65
2018-07-01T07:09:59.314Z,65
2018-07-01T07:10:59.835Z,70
2018-07-01T07:11:59.547Z,70
2018-07-01T07:12:59.879Z,75
2018-07-01T07:13:59.534Z,245
2018-07-01T07:14:59.536Z,615
2018-07-01T07:15:59.262Z,960
2018-07-01T07:16:59.289Z,1205
2018-07-01T07:17:59.771Z,1260
2018-07-01T07:19:00.026Z,1275
2018-07-01T07:19:59.228Z,1325
2018-07-01T07:20:59.742Z,1440
2018-07-01T07:21:59.739Z,1520
2018-07-01T07:22:59.470Z,1490
2018-07-01T07:23:59.483Z,1405
2018-07-01T07:25:00.031Z,1300
2018-07-01T07:25:59.450Z,1240
2018-07-01T07:26:59.199Z,1255
2018-07-01T07:27:59.980Z,1415
2018-07-01T07:28:59.700Z,1570
2018-07-01T07:29:59.985Z,1620
2018-07-01T07:30:59.990Z,1620
2018-07-01T07:31:59.573Z,1585
2018-07-01T07:32:59.423Z,1580
2018-07-01T07:33:59.418Z,1575
2018-07-01T07:34:59.182Z,1560
2018-07-01T07:35:59.686Z,1530
2018-07-01T07:36:59.630Z,1500
2018-07-01T07:37:59.940Z,1440
2018-07-01T07:38:59.399Z,1400
2018-07-01T07:39:59.425Z,1410
2018-07-01T07:40:59.673Z,1425
2018-07-01T07:41:59.134Z,1445
2018-07-01T07:42:59.716Z,1500
2018-07-01T07:43:59.414Z,1540
2018-07-01T07:45:00.390Z,1570
2018-07-01T07:45:59.915Z,1560
2018-07-01T07:46:59.670Z,1550
2018-07-01T07:47:59.403Z,1560
2018-07-01T07:48:59.671Z,1600
2018-07-01T07:49:59.402Z,1600
2018-07-01T07:50:59.123Z,1595
2018-07-01T07:51:59.128Z,1580
2018-07-01T07:52:59.124Z,1550
2018-07-01T07:53:59.918Z,1555
2018-07-01T07:54:59.138Z,1605
2018-07-01T07:55:59.403Z,1630
2018-07-01T07:56:59.944Z,1640
2018-07-01T07:57:59.682Z,1645
2018-07-01T07:58:59.389Z,1640
2018-07-01T07:59:59.389Z,1635
2018-07-01T08:00:59.119Z,1665
2018-07-01T08:01:59.804Z,1655
2018-07-01T08:02:59.650Z,1655
2018-07-01T08:03:59.394Z,1655
2018-07-01T08:04:59.660Z,1665
2018-07-01T08:05:59.917Z,1665
2018-07-01T08:06:59.128Z,1690
2018-07-01T08:07:59.657Z,1705
2018-07-01T08:08:59.122Z,1675
2018-07-01T08:09:59.401Z,1635
2018-07-01T08:10:59.414Z,1635
2018-07-01T08:11:59.387Z,1650
2018-07-01T08:12:59.628Z,1675
2018-07-01T08:13:59.131Z,1685
2018-07-01T08:14:59.411Z,1710
2018-07-01T08:15:59.398Z,1730
2018-07-01T08:16:59.393Z,1750
2018-07-01T08:17:59.398Z,1750
2018-07-01T08:18:59.943Z,1715
2018-07-01T08:19:59.417Z,1720
2018-07-01T08:20:59.672Z,1740
2018-07-01T08:21:59.341Z,1775
2018-07-01T08:22:59.661Z,1795
2018-07-01T08:23:59.674Z,1780
2018-07-01T08:24:59.404Z,1765
2018-07-01T08:25:59.687Z,1810
2018-07-01T08:26:59.417Z,1850
2018-07-01T08:27:59.414Z,1885
2018-07-01T08:28:59.956Z,845
2018-07-01T08:29:59.425Z,1825
2018-07-01T08:30:59.686Z,1500
2018-07-01T08:31:59.948Z,1295
2018-07-01T08:32:59.681Z,1235
2018-07-01T08:33:59.697Z,180
2018-07-01T08:34:59.423Z,1010
2018-07-01T08:35:59.683Z,1840
2018-07-01T08:36:59.444Z,1805
2018-07-01T08:37:59.438Z,1250
2018-07-01T08:38:59.430Z,595
2018-07-01T08:39:59.421Z,830
2018-07-01T08:40:59.424Z,1420
2018-07-01T08:41:59.969Z,1220
2018-07-01T08:42:59.426Z,95
2018-07-01T08:43:59.424Z,840
2018-07-01T08:44:59.421Z,100
2018-07-01T08:45:59.708Z,555
2018-07-01T08:46:59.442Z,90
2018-07-01T08:47:59.157Z,85
2018-07-01T08:48:59.789Z,800
2018-07-01T08:49:59.180Z,1000
2018-07-01T08:50:59.151Z,150
2018-07-01T08:51:59.169Z,1555
2018-07-01T08:52:59.523Z,100
2018-07-01T08:53:59.567Z,85
2018-07-01T08:54:59.698Z,660
2018-07-01T08:55:59.679Z,100
2018-07-01T08:56:59.411Z,495
2018-07-01T08:57:59.722Z,490
2018-07-01T08:58:59.131Z,1320
2018-07-01T08:59:59.674Z,940
2018-07-01T09:00:59.927Z,1935
2018-07-01T09:01:59.131Z,2010
2018-07-01T09:02:59.652Z,2075
2018-07-01T09:03:59.128Z,2065
2018-07-01T09:04:59.391Z,1990
2018-07-01T09:05:59.646Z,1920
2018-07-01T09:06:59.382Z,1860
2018-07-01T09:07:59.920Z,1875
2018-07-01T09:08:59.229Z,1920
2018-07-01T09:09:59.655Z,1945
2018-07-01T09:10:59.643Z,1665
2018-07-01T09:11:59.107Z,2030
2018-07-01T09:12:59.903Z,2105
2018-07-01T09:13:59.378Z,2135
2018-07-01T09:14:59.372Z,2155
2018-07-01T09:15:59.641Z,1570
2018-07-01T09:16:59.939Z,325
2018-07-01T09:17:59.647Z,1825
2018-07-01T09:18:58.887Z,1900
2018-07-01T09:19:59.640Z,1150
2018-07-01T09:20:59.131Z,1730
2018-07-01T09:21:59.128Z,1835
2018-07-01T09:22:59.643Z,220
2018-07-01T09:23:59.650Z,315
2018-07-01T09:24:59.672Z,295
2018-07-01T09:25:59.420Z,550
2018-07-01T09:26:59.404Z,955
2018-07-01T09:27:59.397Z,1425
2018-07-01T09:28:59.567Z,255
2018-07-01T09:29:59.140Z,1665
2018-07-01T09:30:59.656Z,845
2018-07-01T09:31:59.144Z,1095
2018-07-01T09:32:59.654Z,190
2018-07-01T09:33:59.393Z,420
2018-07-01T09:34:59.123Z,600
2018-07-01T09:35:59.909Z,230
2018-07-01T09:37:00.137Z,915
2018-07-01T09:37:59.395Z,975
2018-07-01T09:38:59.400Z,1555
2018-07-01T09:39:59.391Z,685
2018-07-01T09:40:59.663Z,770
2018-07-01T09:41:59.653Z,1990
2018-07-01T09:42:59.915Z,1625
2018-07-01T09:43:59.654Z,1295
2018-07-01T09:44:59.418Z,210
2018-07-01T09:45:59.380Z,400
2018-07-01T09:46:59.673Z,320
2018-07-01T09:47:59.650Z,815
2018-07-01T09:48:59.463Z,1570
2018-07-01T09:49:59.388Z,1310
2018-07-01T09:50:59.958Z,135
2018-07-01T09:51:59.659Z,610
2018-07-01T09:52:59.922Z,220
2018-07-01T09:53:59.403Z,380
2018-07-01T09:54:59.129Z,340
2018-07-01T09:55:59.134Z,255
2018-07-01T09:56:59.398Z,245
2018-07-01T09:57:59.386Z,120
2018-07-01T09:58:59.378Z,180
2018-07-01T09:59:59.389Z,535
2018-07-01T10:00:59.506Z,855
2018-07-01T10:01:59.637Z,500
2018-07-01T10:02:59.634Z,175
2018-07-01T10:03:59.640Z,120
2018-07-01T10:04:59.629Z,130
2018-07-01T10:05:59.921Z,110
2018-07-01T10:06:59.098Z,715
2018-07-01T10:07:59.090Z,110
2018-07-01T10:08:59.355Z,120
2018-07-01T10:09:59.092Z,300
2018-07-01T10:10:59.356Z,445
2018-07-01T10:11:59.210Z,225
2018-07-01T10:12:59.873Z,250
2018-07-01T10:13:59.672Z,215
2018-07-01T10:14:59.110Z,160
2018-07-01T10:15:59.337Z,150
2018-07-01T10:16:59.339Z,305
2018-07-01T10:17:59.064Z,250
2018-07-01T10:18:59.199Z,810
2018-07-01T10:19:59.588Z,675
2018-07-01T10:20:59.352Z,175
2018-07-01T10:21:59.059Z,135
2018-07-01T10:22:58.781Z,420
2018-07-01T10:23:59.313Z,205
2018-07-01T10:24:59.306Z,1570
2018-07-01T10:25:59.311Z,625
2018-07-01T10:26:59.835Z,2265
2018-07-01T10:27:59.567Z,1755
2018-07-01T10:28:59.301Z,2370
2018-07-01T10:29:59.561Z,2430
2018-07-01T10:30:59.291Z,2510
2018-07-01T10:31:59.820Z,380
2018-07-01T10:32:59.026Z,2520
2018-07-01T10:33:59.297Z,2435
2018-07-01T10:34:59.284Z,2345
2018-07-01T10:35:59.294Z,2300
2018-07-01T10:36:59.024Z,2260
2018-07-01T10:37:59.290Z,2220
2018-07-01T10:38:59.289Z,2165
2018-07-01T10:39:59.029Z,2120
2018-07-01T10:40:59.560Z,2150
2018-07-01T10:41:59.293Z,2200
2018-07-01T10:42:59.299Z,2265
2018-07-01T10:43:59.835Z,2295
2018-07-01T10:44:59.569Z,2305
2018-07-01T10:45:59.560Z,2305
2018-07-01T10:46:59.596Z,2285
2018-07-01T10:47:59.309Z,2295
2018-07-01T10:48:59.055Z,2305
2018-07-01T10:49:59.590Z,2285
2018-07-01T10:50:59.594Z,2260
2018-07-01T10:51:59.603Z,2255
2018-07-01T10:52:59.878Z,2255
2018-07-01T10:53:59.866Z,2240
2018-07-01T10:54:59.084Z,2180
2018-07-01T10:55:59.106Z,2110
2018-07-01T10:56:59.366Z,2110
2018-07-01T10:57:59.105Z,2100
2018-07-01T10:58:59.649Z,2175
2018-07-01T10:59:59.379Z,2280
2018-07-01T11:00:59.384Z,2325
2018-07-01T11:01:59.388Z,2345
2018-07-01T11:02:59.129Z,2350
2018-07-01T11:03:59.406Z,2345
2018-07-01T11:04:59.686Z,2295
2018-07-01T11:06:00.211Z,2255
2018-07-01T11:06:59.949Z,2210
2018-07-01T11:07:59.688Z,2150
2018-07-01T11:08:59.951Z,2120
2018-07-01T11:09:59.429Z,2135
2018-07-01T11:10:59.438Z,2190
2018-07-01T11:11:59.463Z,2255
2018-07-01T11:12:59.457Z,2265
2018-07-01T11:14:00.024Z,2285
2018-07-01T11:14:59.747Z,2330
2018-07-01T11:15:58.938Z,2360
2018-07-01T11:16:59.754Z,2390
2018-07-01T11:17:59.748Z,2350
2018-07-01T11:18:59.500Z,2300
2018-07-01T11:19:59.233Z,2255
2018-07-01T11:20:59.520Z,2180
2018-07-01T11:21:59.507Z,2135
2018-07-01T11:22:59.518Z,2140
2018-07-01T11:24:00.062Z,2195
2018-07-01T11:24:59.261Z,2275
2018-07-01T11:26:00.068Z,2340
2018-07-01T11:27:00.763Z,2350
2018-07-01T11:27:59.551Z,2335
2018-07-01T11:28:59.288Z,2265
2018-07-01T11:29:59.562Z,2210
2018-07-01T11:31:00.107Z,2300
2018-07-01T11:31:59.847Z,2395
2018-07-01T11:32:59.333Z,2390
2018-07-01T11:33:59.854Z,2405
2018-07-01T11:35:00.227Z,2320
2018-07-01T11:35:59.607Z,2210
2018-07-01T11:36:59.608Z,2180
2018-07-01T11:37:59.362Z,2205
2018-07-01T11:38:59.627Z,2280
2018-07-01T11:40:00.208Z,2340
2018-07-01T11:40:59.373Z,2360
2018-07-01T11:42:00.183Z,2340
2018-07-01T11:42:59.917Z,2245
2018-07-01T11:43:59.662Z,2195
2018-07-01T11:44:59.936Z,2190
2018-07-01T11:45:59.672Z,2210
2018-07-01T11:46:59.148Z,2255
2018-07-01T11:47:59.695Z,2310
2018-07-01T11:48:59.435Z,2340
2018-07-01T11:49:59.444Z,2360
2018-07-01T11:51:00.254Z,2320
2018-07-01T11:51:59.981Z,2265
2018-07-01T11:52:59.720Z,2155
2018-07-01T11:54:00.035Z,2045
2018-07-01T11:54:59.748Z,2000
2018-07-01T11:55:59.213Z,1980
2018-07-01T11:57:00.016Z,2065
2018-07-01T11:57:59.764Z,2165
2018-07-01T11:59:00.044Z,2195
2018-07-01T12:00:00.207Z,2155
2018-07-01T12:00:59.779Z,2125
2018-07-01T12:02:00.815Z,2100
2018-07-01T12:02:59.796Z,2120
2018-07-01T12:04:00.077Z,2170
2018-07-01T12:05:23.476Z,2150
2018-07-01T12:06:00.083Z,2135
2018-07-01T12:06:59.582Z,2125
2018-07-01T12:08:00.100Z,2195
2018-07-01T12:09:00.105Z,2250
2018-07-01T12:09:59.588Z,2240
2018-07-01T12:11:00.381Z,2270
2018-07-01T12:12:00.097Z,2280
2018-07-01T12:12:59.869Z,2230
2018-07-01T12:14:00.398Z,2240
2018-07-01T12:15:00.145Z,2190
2018-07-01T12:16:00.426Z,2110
2018-07-01T12:17:00.436Z,2120
2018-07-01T12:17:59.646Z,2125
2018-07-01T12:19:00.186Z,2125
2018-07-01T12:19:59.667Z,2185
2018-07-01T12:21:00.485Z,2265
2018-07-01T12:21:59.956Z,2305
2018-07-01T12:22:59.693Z,2320
2018-07-01T12:23:59.970Z,2305
2018-07-01T12:25:00.223Z,2260
2018-07-01T12:26:00.505Z,2245
2018-07-01T12:27:00.256Z,2205
2018-07-01T12:27:59.984Z,2130
2018-07-01T12:29:00.148Z,2055
2018-07-01T12:30:00.259Z,2040
2018-07-01T12:31:00.541Z,2095
2018-07-01T12:32:00.018Z,2175
2018-07-01T12:33:00.028Z,2280
2018-07-01T12:34:00.586Z,2325
2018-07-01T12:35:00.046Z,2265
2018-07-01T12:36:00.060Z,2145
2018-07-01T12:37:00.310Z,2040
2018-07-01T12:38:00.341Z,2055
2018-07-01T12:39:00.590Z,2090
2018-07-01T12:39:59.547Z,2110
2018-07-01T12:41:00.347Z,2135
2018-07-01T12:42:00.291Z,2080
2018-07-01T12:42:59.835Z,2020
2018-07-01T12:44:00.383Z,2000
2018-07-01T12:45:00.104Z,1955
2018-07-01T12:45:59.865Z,1920
2018-07-01T12:47:00.119Z,1895
2018-07-01T12:48:00.513Z,1900
2018-07-01T12:48:59.873Z,1950
2018-07-01T12:50:00.142Z,2010
2018-07-01T12:50:59.885Z,2105
2018-07-01T12:51:59.632Z,2160
2018-07-01T12:53:00.428Z,2135
2018-07-01T12:54:00.750Z,2080
2018-07-01T12:54:59.941Z,2045
2018-07-01T12:56:00.738Z,2080
2018-07-01T12:57:00.453Z,2085
2018-07-01T12:57:59.955Z,2075
2018-07-01T12:59:00.220Z,2035
2018-07-01T12:59:59.953Z,2045
2018-07-01T13:00:59.968Z,2095
2018-07-01T13:02:00.634Z,2110
2018-07-01T13:03:00.246Z,2080
2018-07-01T13:04:00.243Z,2045
2018-07-01T13:05:00.249Z,2050
2018-07-01T13:06:00.283Z,2070
2018-07-01T13:07:00.535Z,2070
2018-07-01T13:08:00.033Z,2065
2018-07-01T13:09:00.280Z,2070
2018-07-01T13:10:00.559Z,2110
2018-07-01T13:11:00.047Z,2165
2018-07-01T13:12:00.768Z,2170
2018-07-01T13:13:00.317Z,2115
2018-07-01T13:13:59.804Z,2060
2018-07-01T13:15:00.332Z,2035
2018-07-01T13:16:00.355Z,2030
2018-07-01T13:17:00.880Z,2035
2018-07-01T13:18:00.101Z,1990
2018-07-01T13:18:59.835Z,1975
2018-07-01T13:20:00.368Z,2030
2018-07-01T13:21:00.645Z,2090
2018-07-01T13:22:00.687Z,2075
2018-07-01T13:23:00.665Z,2090
2018-07-01T13:24:00.673Z,2095
2018-07-01T13:24:59.877Z,2145
2018-07-01T13:25:59.889Z,2210
2018-07-01T13:27:00.951Z,2170
2018-07-01T13:28:00.695Z,2085
2018-07-01T13:29:00.177Z,2000
2018-07-01T13:30:00.652Z,1970
2018-07-01T13:31:00.721Z,1955
2018-07-01T13:32:00.488Z,2015
2018-07-01T13:33:00.213Z,2060
2018-07-01T13:34:00.235Z,2085
2018-07-01T13:35:00.489Z,2125
2018-07-01T13:36:01.094Z,2125
2018-07-01T13:37:00.972Z,2085
2018-07-01T13:38:00.798Z,2025
2018-07-01T13:39:00.826Z,1995
2018-07-01T13:40:01.091Z,1970
2018-07-01T13:41:00.323Z,2005
2018-07-01T13:42:00.810Z,2035
2018-07-01T13:43:00.449Z,1965
2018-07-01T13:44:00.559Z,1800
2018-07-01T13:45:01.108Z,1510
2018-07-01T13:46:00.857Z,1360
2018-07-01T13:47:00.864Z,1470
2018-07-01T13:48:01.124Z,1730
2018-07-01T13:49:01.126Z,1925
2018-07-01T13:50:01.075Z,1990
2018-07-01T13:51:00.610Z,1925
2018-07-01T13:52:01.152Z,1845
2018-07-01T13:53:01.173Z,1840
2018-07-01T13:54:00.915Z,1895
2018-07-01T13:55:00.659Z,1930
2018-07-01T13:56:00.876Z,1910